• Join FlightAware (Why Join?)
  • Login
  • US Flag 
09:46AM EST


 

Airport Tracker/Info


-or-


 

Live Flight TrackerFlight Track Log ✈ FIN666 ✈ 04-Oct-2013 ✈ EKCH / CPH - EFHK / HEL

Flight Track Log - Related Links

Times and Time Zones

All times are in EDT time to prevent confusion due to time zone crossing. See the FIN666 flight status page for this flight to view local times or setup timezone preferences in your user account.

Time Position Orientation Groundspeed Altitude Reporting Facility
EDT Latitude Longitude Course Direction KTS MPH feet Rate Location/Type
07:28AM 55.8244 13.0824 49° Northeast  Level Estimated
07:29AM 55.8929 13.2255 49° Northeast  Level Estimated
07:30AM 55.9613 13.3692 50° Northeast  Level Estimated
07:31AM 56.0294 13.5134 50° Northeast  Level Estimated
07:32AM 56.0974 13.6580 50° Northeast  Level Estimated
07:33AM 56.1652 13.8032 50° Northeast  Level Estimated
07:34AM 56.2329 13.9489 50° Northeast  Level Estimated
07:35AM 56.3004 14.0951 50° Northeast  Level Estimated
07:36AM 56.3677 14.2418 50° Northeast  Level Estimated
07:37AM 56.4348 14.3891 50° Northeast  Level Estimated
07:38AM 56.5018 14.5368 51° Northeast  Level Estimated
07:39AM 56.5686 14.6851 51° Northeast  Level Estimated
07:40AM 56.6352 14.8340 51° Northeast  Level Estimated
07:41AM 56.7016 14.9833 51° Northeast  Level Estimated
07:42AM 56.7679 15.1332 51° Northeast  Level Estimated
07:43AM 56.8340 15.2835 51° Northeast  Level Estimated
07:44AM 56.8998 15.4345 51° Northeast  Level Estimated
07:45AM 56.9656 15.5859 51° Northeast  Level Estimated
07:46AM 57.0311 15.7379 52° Northeast  Level Estimated
07:47AM 57.0964 15.8904 52° Northeast  Level Estimated
07:48AM 57.1616 16.0435 52° Northeast  Level Estimated
07:49AM 57.2266 16.1971 52° Northeast  Level Estimated
07:50AM 57.2913 16.3513 52° Northeast  Level Estimated
07:51AM 57.3559 16.5060 52° Northeast  Level Estimated
07:52AM 57.4203 16.6612 52° Northeast  Level Estimated
07:53AM 57.4854 16.8190 52° Northeast  Level Estimated
07:54AM 57.5503 16.9775 53° Northeast  Level Estimated
07:55AM 57.6149 17.1364 53° Northeast  Level Estimated
07:56AM 57.6794 17.2960 53° Northeast  Level Estimated
07:57AM 57.7437 17.4561 53° Northeast  Level Estimated
07:58AM 57.8077 17.6168 53° Northeast  Level Estimated
07:59AM 57.8716 17.7781 53° Northeast  Level Estimated
08:00AM 57.9352 17.9399 53° Northeast  Level Estimated
08:01AM 57.9987 18.1023 54° Northeast  Level Estimated
08:02AM 58.0619 18.2653 54° Northeast  Level Estimated
08:03AM 58.1250 18.4289 54° Northeast  Level Estimated
08:04AM 58.1878 18.5930 54° Northeast  Level Estimated
08:05AM 58.2504 18.7577 54° Northeast  Level Estimated
08:06AM 58.3128 18.9230 54° Northeast  Level Estimated
08:07AM 58.3750 19.0889 54° Northeast  Level Estimated
08:08AM 58.4369 19.2554 55° Northeast  Level Estimated
08:09AM 58.4987 19.4224 55° Northeast  Level Estimated
08:10AM 58.5602 19.5901 55° Northeast  Level Estimated
08:11AM 58.6215 19.7583 55° Northeast  Level Estimated
08:12AM 58.6826 19.9271 55° Northeast  Level Estimated
08:13AM 58.7435 20.0965 55° Northeast  Level Estimated
08:14AM 58.8041 20.2665 55° Northeast  Level Estimated
08:15AM 58.8646 20.4371 56° Northeast  Level Estimated
08:16AM 58.9248 20.6083 56° Northeast  Level Estimated
08:17AM 58.9847 20.7801 56° Northeast  Level Estimated
08:18AM 59.0445 20.9525 56° Northeast  Level Estimated
08:19AM 59.1040 21.1255 56° Northeast  Level Estimated
08:20AM 59.1633 21.2991 56° Northeast  Level Estimated
08:21AM 59.2231 21.4757 56° Northeast  Level Estimated
08:22AM 59.2827 21.6528 57° Northeast  Level Estimated
08:23AM 59.3421 21.8306 57° Northeast  Level Estimated
08:24AM 59.4012 22.0090 57° Northeast  Level Estimated
08:25AM 59.4601 22.1881 57° Northeast  Level Estimated
08:26AM 59.5187 22.3677 57° Northeast  Level Estimated
08:27AM 59.5771 22.5480 57° Northeast  Level Estimated
08:28AM 59.6353 22.7289 57° Northeast  Level Estimated
08:29AM 59.6932 22.9104 58° Northeast  Level Estimated
08:30AM 59.7508 23.0926 58° Northeast  Level Estimated
08:31AM 59.8082 23.2754 58° Northeast  Level Estimated
08:32AM 59.8653 23.4588 58° Northeast  Level Estimated
08:33AM 59.9222 23.6429 58° Northeast  Level Estimated
08:34AM 59.9788 23.8275 58° Northeast  Level Estimated
08:35AM 60.0352 24.0128 59° Northeast  Level Estimated
08:36AM 60.0913 24.1988 59° Northeast  Level Estimated
08:37AM 60.1471 24.3854 59° Northeast  Level Estimated
08:38AM 60.2027 24.5726 59° Northeast  Level Estimated
08:39AM 60.2580 24.7604 59° Northeast  Level Estimated
08:40AM 60.3130 24.9489 59° Northeast  Level Estimated
08:41AM 60.3172 24.9633 60° Northeast  Level Estimated
08:42AM 60.3172 24.9633 37° Northeast  Level Estimated
08:43AM 60.3172 24.9633 37° Northeast  Level Estimated
08:44AM 60.3172 24.9633 37° Northeast  Level Estimated
08:45AM 60.3172 24.9633 37° Northeast  Level Estimated
08:46AM 60.3172 24.9633 37° Northeast  Level Estimated
08:47AM 60.3172 24.9633 37° Northeast  Level Estimated
08:48AM 60.3172 24.9633 37° Northeast  Level Estimated
08:49AM 60.3172 24.9633 37° Northeast  Level Estimated
08:50AM 60.3172 24.9633 37° Northeast  Level Estimated
08:51AM 60.3172 24.9633 37° Northeast  Level Estimated
08:52AM 60.3172 24.9633 37° Northeast  Level Estimated